Terminal Aerodrome Forecast
Issued by NWS

Current Version | Previous Version | Text Only | Print | Product List | Glossary On
Versions: 1 2 3 4 5 6 7 8 9 10 11
351
FTUS44 KEPZ 261133
TAFLRU
TAF
KLRU 261133Z 2612/2712 30007KT P6SM SKC
     FM262000 27015G22KT P6SM SCT250
     FM270300 28009KT P6SM SCT250=

USA.gov is the U.S. government's official web portal to all federal, state and local government web resources and services.